Time;durP1;ratioP1;P1;durP2;ratioP2;P2;SDS_P1;SDS_P2;PMS_P1;PMS_P2;Temp;Humidity;BMP_temperature;BMP_pressure;BME280_temperature;BME280_humidity;BME280_pressure;Samples;Min_cycle;Max_cycle;Signal;HPM_P1;HPM_P2
2021/03/08 00:02:18;;;;;;;13.27;10.30;;;;;;;;;;5053473;28;20227;-75
2021/03/08 00:04:44;;;;;;;11.23;10.10;;;;;;;;;;5053962;28;20490;-74
2021/03/08 00:07:10;;;;;;;11.25;9.90;;;;;;;;;;5053047;28;20326;-74
2021/03/08 00:09:38;;;;;;;11.10;9.40;;;;;;;;;;5052544;28;20788;-75
2021/03/08 00:12:04;;;;;;;11.00;9.43;;;;;;;;;;5053218;28;20239;-75
2021/03/08 00:14:30;;;;;;;14.15;8.48;;;;;;;;;;5054352;28;20213;-75
2021/03/08 00:16:56;;;;;;;13.97;10.33;;;;;;;;;;5053999;28;20528;-75
2021/03/08 00:19:22;;;;;;;13.32;9.73;;;;;;;;;;5053946;28;20517;-75
2021/03/08 00:21:48;;;;;;;12.65;9.75;;;;;;;;;;5051742;28;20235;-75
2021/03/08 00:24:14;;;;;;;12.90;9.75;;;;;;;;;;5052377;28;20182;-75
2021/03/08 00:26:41;;;;;;;9.38;8.07;;;;;;;;;;5053759;28;20181;-75
2021/03/08 00:29:07;;;;;;;9.50;8.27;;;;;;;;;;5054159;28;20205;-73
2021/03/08 00:31:33;;;;;;;12.38;9.40;;;;;;;;;;5051898;28;20260;-75
2021/03/08 00:33:59;;;;;;;11.55;9.93;;;;;;;;;;5053280;28;20211;-75
2021/03/08 00:36:25;;;;;;;12.83;9.50;;;;;;;;;;5053311;28;20189;-75
2021/03/08 00:38:51;;;;;;;12.63;10.10;;;;;;;;;;5053441;28;20502;-75
2021/03/08 00:41:17;;;;;;;11.32;9.65;;;;;;;;;;5053566;28;20182;-75
2021/03/08 00:43:43;;;;;;;11.80;10.17;;;;;;;;;;5053630;28;20679;-75
2021/03/08 00:46:09;;;;;;;15.05;9.38;;;;;;;;;;5052208;28;20439;-74
2021/03/08 00:48:35;;;;;;;11.25;10.07;;;;;;;;;;5052348;28;20232;-75
2021/03/08 00:51:01;;;;;;;11.10;9.60;;;;;;;;;;5051189;28;20193;-75
2021/03/08 00:53:27;;;;;;;11.85;9.38;;;;;;;;;;5051443;28;20478;-75
2021/03/08 00:55:53;;;;;;;13.82;9.18;;;;;;;;;;5053051;28;20260;-75
2021/03/08 00:58:19;;;;;;;16.10;10.50;;;;;;;;;;5053875;28;20193;-75
2021/03/08 01:00:45;;;;;;;11.13;9.27;;;;;;;;;;5052649;28;20578;-75
2021/03/08 01:03:11;;;;;;;16.20;9.80;;;;;;;;;;5052548;28;20190;-75
2021/03/08 01:05:37;;;;;;;15.95;10.60;;;;;;;;;;5052760;28;20196;-75
2021/03/08 01:08:04;;;;;;;11.40;10.20;;;;;;;;;;5052348;28;20189;-74
2021/03/08 01:10:31;;;;;;;15.32;9.50;;;;;;;;;;5053024;28;20432;-75
2021/03/08 01:12:57;;;;;;;13.30;10.23;;;;;;;;;;5052512;28;20517;-75
2021/03/08 01:15:23;;;;;;;10.52;8.80;;;;;;;;;;5053292;28;20185;-75
2021/03/08 01:17:49;;;;;;;12.52;9.65;;;;;;;;;;5051930;28;20557;-75
2021/03/08 01:20:17;;;;;;;11.30;10.00;;;;;;;;;;5050928;28;20205;-75
2021/03/08 01:22:43;;;;;;;14.00;11.48;;;;;;;;;;5050795;28;20428;-75
2021/03/08 01:25:09;;;;;;;12.45;10.43;;;;;;;;;;5052780;28;20192;-75
2021/03/08 01:27:35;;;;;;;18.10;9.63;;;;;;;;;;5052876;28;20189;-75
2021/03/08 01:30:01;;;;;;;12.80;9.83;;;;;;;;;;5052126;28;20249;-75
2021/03/08 01:32:27;;;;;;;12.73;9.40;;;;;;;;;;5052514;28;20422;-75
2021/03/08 01:34:53;;;;;;;13.90;9.98;;;;;;;;;;5050703;28;20212;-75
2021/03/08 01:37:19;;;;;;;13.10;11.13;;;;;;;;;;5050791;28;20205;-75
2021/03/08 01:39:45;;;;;;;12.30;10.10;;;;;;;;;;5047758;28;20256;-74
2021/03/08 01:42:11;;;;;;;11.27;9.67;;;;;;;;;;5048796;28;20420;-75
2021/03/08 01:44:37;;;;;;;14.38;11.10;;;;;;;;;;5052627;28;20435;-74
2021/03/08 01:47:03;;;;;;;14.27;10.40;;;;;;;;;;5052311;28;20644;-75
2021/03/08 01:49:29;;;;;;;11.50;10.10;;;;;;;;;;5050247;28;20495;-75
2021/03/08 01:51:55;;;;;;;14.55;10.93;;;;;;;;;;5048571;28;20431;-74
2021/03/08 01:54:21;;;;;;;14.50;10.30;;;;;;;;;;5052191;28;20254;-74
2021/03/08 01:56:47;;;;;;;12.23;9.80;;;;;;;;;;5051375;28;20420;-74
2021/03/08 01:59:13;;;;;;;15.02;10.48;;;;;;;;;;5034092;28;20237;-74
2021/03/08 02:01:39;;;;;;;14.33;11.23;;;;;;;;;;5043236;28;20186;-75
2021/03/08 02:04:05;;;;;;;16.10;10.20;;;;;;;;;;5051735;28;20412;-75
2021/03/08 02:06:31;;;;;;;13.70;9.80;;;;;;;;;;5051416;28;20269;-75
2021/03/08 02:08:57;;;;;;;12.60;11.30;;;;;;;;;;5051847;28;20948;-76
2021/03/08 02:11:23;;;;;;;13.18;10.75;;;;;;;;;;5052442;28;20200;-73
2021/03/08 02:13:55;;;;;;;12.03;10.57;;;;;;;;;;5051322;28;20201;-73
2021/03/08 02:16:40;;;;;;;14.93;10.20;;;;;;;;;;5049920;28;20793;-75
2021/03/08 02:19:24;;;;;;;15.60;10.50;;;;;;;;;;5051241;28;20212;-74
2021/03/08 02:22:12;;;;;;;11.88;10.68;;;;;;;;;;5043146;28;20188;-75
2021/03/08 02:24:38;;;;;;;14.45;11.30;;;;;;;;;;5051546;28;20173;-74
2021/03/08 02:27:37;;;;;;;14.77;11.27;;;;;;;;;;5052148;28;20177;-75
2021/03/08 02:30:09;;;;;;;16.48;10.00;;;;;;;;;;5048459;28;20455;-75
2021/03/08 02:32:37;;;;;;;13.73;10.57;;;;;;;;;;5050408;28;20201;-74
2021/03/08 02:35:08;;;;;;;14.95;11.88;;;;;;;;;;5047756;28;20237;-75
2021/03/08 02:37:41;;;;;;;16.55;12.82;;;;;;;;;;5052874;28;20733;-74
2021/03/08 02:40:13;;;;;;;15.68;11.43;;;;;;;;;;5048844;28;20672;-75
2021/03/08 02:42:39;;;;;;;14.40;10.75;;;;;;;;;;5031698;28;20218;-73
2021/03/08 02:45:07;;;;;;;14.05;11.75;;;;;;;;;;5048191;28;20194;-75
2021/03/08 02:47:35;;;;;;;16.17;12.20;;;;;;;;;;5050510;28;20194;-73
2021/03/08 02:50:03;;;;;;;13.30;10.73;;;;;;;;;;5049465;28;20236;-75
2021/03/08 02:52:31;;;;;;;17.25;11.10;;;;;;;;;;5050013;28;20268;-75
2021/03/08 02:54:58;;;;;;;16.10;12.55;;;;;;;;;;5051298;28;20206;-74
2021/03/08 02:57:26;;;;;;;15.32;12.18;;;;;;;;;;5051602;28;20199;-75
2021/03/08 02:59:53;;;;;;;14.05;11.98;;;;;;;;;;5050696;28;20695;-75
2021/03/08 03:02:20;;;;;;;16.40;12.27;;;;;;;;;;5049950;28;20192;-75
2021/03/08 03:04:47;;;;;;;13.85;11.18;;;;;;;;;;5051623;28;20260;-75
2021/03/08 03:07:14;;;;;;;14.68;11.77;;;;;;;;;;5050701;28;20181;-75
2021/03/08 03:09:41;;;;;;;17.80;12.55;;;;;;;;;;5046783;28;20259;-75
2021/03/08 03:12:08;;;;;;;18.67;12.27;;;;;;;;;;5042648;28;20177;-74
2021/03/08 03:14:35;;;;;;;20.88;13.07;;;;;;;;;;5051463;28;20240;-75
2021/03/08 03:17:09;;;;;;;17.40;13.15;;;;;;;;;;5050381;28;20189;-75
2021/03/08 03:19:39;;;;;;;22.48;12.40;;;;;;;;;;5041236;28;20248;-75
2021/03/08 03:22:06;;;;;;;15.48;11.63;;;;;;;;;;5049689;28;20289;-75
2021/03/08 03:24:33;;;;;;;18.48;13.07;;;;;;;;;;5051185;28;20266;-75
2021/03/08 03:27:02;;;;;;;20.15;12.68;;;;;;;;;;5053370;28;20190;-75
2021/03/08 03:29:28;;;;;;;16.75;11.70;;;;;;;;;;5053867;28;20274;-75
2021/03/08 03:31:55;;;;;;;15.13;11.10;;;;;;;;;;5053223;28;20186;-75
2021/03/08 03:34:21;;;;;;;16.08;12.25;;;;;;;;;;5051391;28;20205;-75
2021/03/08 03:36:49;;;;;;;14.82;13.15;;;;;;;;;;5054196;28;20272;-75
2021/03/08 03:39:16;;;;;;;19.52;12.63;;;;;;;;;;5049971;28;20202;-75
2021/03/08 03:41:42;;;;;;;17.88;11.50;;;;;;;;;;5054573;28;20188;-75
2021/03/08 03:44:08;;;;;;;16.40;12.38;;;;;;;;;;5054620;28;20188;-73
2021/03/08 03:46:42;;;;;;;18.75;11.40;;;;;;;;;;5052338;28;20198;-75
2021/03/08 03:49:08;;;;;;;18.35;12.25;;;;;;;;;;5051780;28;20693;-76
2021/03/08 03:51:35;;;;;;;17.13;13.30;;;;;;;;;;5053746;28;20201;-75
2021/03/08 03:54:01;;;;;;;16.40;13.52;;;;;;;;;;5054701;28;20238;-75
2021/03/08 03:56:29;;;;;;;16.98;13.07;;;;;;;;;;5050440;28;20182;-75
2021/03/08 03:58:58;;;;;;;20.05;12.65;;;;;;;;;;5054842;28;20352;-75
2021/03/08 04:01:29;;;;;;;18.48;12.68;;;;;;;;;;5053113;28;20205;-75
2021/03/08 04:03:57;;;;;;;21.35;14.10;;;;;;;;;;5053560;28;20240;-75
2021/03/08 04:06:24;;;;;;;20.08;14.20;;;;;;;;;;5054075;28;20188;-74
2021/03/08 04:08:53;;;;;;;21.77;14.75;;;;;;;;;;5053907;28;20180;-75
2021/03/08 04:11:20;;;;;;;18.40;14.82;;;;;;;;;;5054310;28;20769;-75
2021/03/08 04:13:46;;;;;;;19.55;13.75;;;;;;;;;;5053645;28;20203;-75
2021/03/08 04:16:14;;;;;;;19.77;13.90;;;;;;;;;;5056630;28;20177;-75
2021/03/08 04:18:43;;;;;;;18.48;13.73;;;;;;;;;;5052400;28;20225;-75
2021/03/08 04:21:10;;;;;;;20.80;13.15;;;;;;;;;;5053160;28;20186;-75
2021/03/08 04:23:37;;;;;;;19.80;13.30;;;;;;;;;;5053201;28;20196;-75
2021/03/08 04:26:05;;;;;;;19.98;14.38;;;;;;;;;;5054550;28;20554;-75
2021/03/08 04:28:31;;;;;;;22.35;14.65;;;;;;;;;;5054246;28;20606;-74
2021/03/08 04:30:58;;;;;;;20.88;13.57;;;;;;;;;;5052091;28;20208;-75
2021/03/08 04:33:24;;;;;;;21.13;14.77;;;;;;;;;;5053900;28;20613;-75
2021/03/08 04:35:51;;;;;;;17.40;14.38;;;;;;;;;;5053229;28;20231;-75
2021/03/08 04:38:17;;;;;;;22.50;14.27;;;;;;;;;;5052012;28;20189;-75
2021/03/08 04:40:44;;;;;;;21.52;15.15;;;;;;;;;;5051306;28;20193;-74
2021/03/08 04:43:10;;;;;;;19.35;14.88;;;;;;;;;;5053815;28;20643;-72
2021/03/08 04:45:38;;;;;;;30.17;15.45;;;;;;;;;;5052621;28;20307;-72
2021/03/08 04:48:04;;;;;;;22.13;13.80;;;;;;;;;;5051482;28;20195;-75
2021/03/08 04:50:30;;;;;;;26.38;17.27;;;;;;;;;;5051590;28;20197;-74
2021/03/08 04:52:57;;;;;;;20.35;13.98;;;;;;;;;;5048594;28;20608;-75
2021/03/08 04:55:27;;;;;;;22.42;15.25;;;;;;;;;;5054094;28;20197;-75
2021/03/08 04:57:53;;;;;;;19.05;13.85;;;;;;;;;;5052023;28;20527;-75
2021/03/08 05:00:19;;;;;;;22.65;14.23;;;;;;;;;;5092598;22;20217;-73
2021/03/08 05:02:45;;;;;;;22.15;14.75;;;;;;;;;;5049300;28;20709;-74
2021/03/08 05:05:12;;;;;;;23.85;15.73;;;;;;;;;;5035224;28;20186;-74
2021/03/08 05:07:40;;;;;;;26.63;17.52;;;;;;;;;;5033955;28;20186;-73
2021/03/08 05:10:08;;;;;;;27.17;16.52;;;;;;;;;;5037406;28;20302;-74
2021/03/08 05:12:35;;;;;;;25.80;17.02;;;;;;;;;;5041414;28;20182;-74
2021/03/08 05:15:04;;;;;;;24.40;17.00;;;;;;;;;;5027737;28;20601;-74
2021/03/08 05:17:30;;;;;;;22.33;13.80;;;;;;;;;;5037313;28;20264;-75
2021/03/08 05:19:57;;;;;;;21.67;15.40;;;;;;;;;;5056617;28;20185;-74
2021/03/08 05:22:24;;;;;;;23.40;15.15;;;;;;;;;;5043646;28;20191;-75
2021/03/08 05:24:51;;;;;;;20.13;15.05;;;;;;;;;;5019446;28;20198;-74
2021/03/08 05:27:18;;;;;;;23.42;17.38;;;;;;;;;;5016582;28;20194;-74
2021/03/08 05:29:44;;;;;;;23.08;15.93;;;;;;;;;;5031541;28;20198;-75
2021/03/08 05:32:13;;;;;;;23.75;14.85;;;;;;;;;;5019056;28;20241;-75
2021/03/08 05:34:42;;;;;;;25.27;16.42;;;;;;;;;;5013565;28;20202;-75
2021/03/08 05:37:08;;;;;;;25.92;16.00;;;;;;;;;;5022271;28;20221;-75
2021/03/08 05:39:36;;;;;;;28.17;17.00;;;;;;;;;;5044922;28;20233;-75
2021/03/08 05:42:15;;;;;;;33.80;16.80;;;;;;;;;;5048908;28;20179;-75
2021/03/08 05:44:44;;;;;;;28.15;18.42;;;;;;;;;;5025229;28;20178;-76
2021/03/08 05:47:10;;;;;;;28.05;17.00;;;;;;;;;;5015098;28;20186;-73
2021/03/08 05:49:54;;;;;;;30.80;19.33;;;;;;;;;;5012424;28;20197;-73
2021/03/08 05:52:39;;;;;;;30.42;18.65;;;;;;;;;;5023360;28;20794;-73
2021/03/08 05:55:31;;;;;;;29.80;17.33;;;;;;;;;;5040584;28;20259;-73
2021/03/08 05:58:09;;;;;;;26.98;16.23;;;;;;;;;;5031787;28;20221;-72
2021/03/08 06:00:35;;;;;;;29.63;18.67;;;;;;;;;;5032729;28;20237;-73
2021/03/08 06:03:01;;;;;;;34.30;18.50;;;;;;;;;;5032465;28;20177;-73
2021/03/08 06:05:30;;;;;;;32.03;18.25;;;;;;;;;;5033293;28;20413;-73
2021/03/08 06:08:02;;;;;;;23.35;15.75;;;;;;;;;;5046202;28;20181;-73
2021/03/08 06:10:33;;;;;;;30.27;18.98;;;;;;;;;;5052718;28;20201;-73
2021/03/08 06:13:01;;;;;;;31.70;19.38;;;;;;;;;;5040157;28;20186;-73
2021/03/08 06:15:29;;;;;;;35.03;20.15;;;;;;;;;;5032646;28;20202;-73
2021/03/08 06:17:56;;;;;;;34.15;17.95;;;;;;;;;;5032628;28;20171;-73
2021/03/08 06:20:21;;;;;;;33.25;20.00;;;;;;;;;;5032213;28;20692;-73
2021/03/08 06:22:49;;;;;;;28.30;19.40;;;;;;;;;;5036624;28;20182;-73
2021/03/08 06:25:15;;;;;;;28.13;18.10;;;;;;;;;;5032393;28;20440;-73
2021/03/08 06:27:44;;;;;;;33.03;18.58;;;;;;;;;;5032834;28;20210;-73
2021/03/08 06:30:11;;;;;;;32.67;19.13;;;;;;;;;;5032301;28;20225;-73
2021/03/08 06:32:37;;;;;;;27.60;16.45;;;;;;;;;;5030822;28;20594;-73
2021/03/08 06:35:04;;;;;;;36.40;20.83;;;;;;;;;;5032174;28;20201;-73
2021/03/08 06:37:30;;;;;;;28.10;18.58;;;;;;;;;;5031818;28;20190;-73
2021/03/08 06:39:56;;;;;;;35.20;19.52;;;;;;;;;;5047186;28;20229;-73
2021/03/08 06:42:22;;;;;;;33.42;18.70;;;;;;;;;;5031954;28;20170;-73
2021/03/08 06:44:50;;;;;;;28.98;17.58;;;;;;;;;;5032195;28;20275;-73
2021/03/08 06:47:16;;;;;;;35.47;20.38;;;;;;;;;;5032179;28;20182;-73
2021/03/08 06:49:42;;;;;;;33.33;22.10;;;;;;;;;;5031203;28;20210;-74
2021/03/08 06:52:09;;;;;;;35.57;20.20;;;;;;;;;;5032013;28;20269;-73
2021/03/08 06:54:37;;;;;;;38.70;20.67;;;;;;;;;;5031839;28;20460;-73
2021/03/08 06:57:03;;;;;;;32.00;20.27;;;;;;;;;;5031860;28;20176;-73
2021/03/08 06:59:29;;;;;;;37.88;18.95;;;;;;;;;;5031873;28;20202;-73
2021/03/08 07:01:55;;;;;;;34.67;22.08;;;;;;;;;;5031884;28;20760;-73
2021/03/08 07:04:22;;;;;;;31.95;21.13;;;;;;;;;;5031927;28;20189;-73
2021/03/08 07:07:07;;;;;;;38.72;21.45;;;;;;;;;;5031988;28;20171;-73
2021/03/08 07:09:34;;;;;;;36.45;20.02;;;;;;;;;;5042470;28;20262;-73
2021/03/08 07:12:07;;;;;;;34.65;20.65;;;;;;;;;;5041583;28;20178;-73
2021/03/08 07:14:33;;;;;;;33.65;21.48;;;;;;;;;;5031691;28;20202;-73
2021/03/08 07:16:59;;;;;;;33.50;20.38;;;;;;;;;;5030828;28;20629;-73
2021/03/08 07:19:25;;;;;;;34.78;19.75;;;;;;;;;;5031881;28;20201;-73
2021/03/08 07:21:51;;;;;;;35.53;20.42;;;;;;;;;;5031746;28;20629;-73
2021/03/08 07:24:17;;;;;;;31.92;20.60;;;;;;;;;;5031557;28;20204;-74
2021/03/08 07:26:51;;;;;;;27.63;16.95;;;;;;;;;;5031559;28;20180;-73
2021/03/08 07:29:17;;;;;;;31.88;21.27;;;;;;;;;;5031684;28;20197;-73
2021/03/08 07:31:45;;;;;;;38.75;22.05;;;;;;;;;;5031645;28;20171;-73
2021/03/08 07:34:12;;;;;;;30.85;18.13;;;;;;;;;;5031821;28;20194;-73
2021/03/08 07:36:42;;;;;;;35.47;20.80;;;;;;;;;;5031778;28;20183;-73
2021/03/08 07:39:09;;;;;;;35.45;20.00;;;;;;;;;;5031467;28;20183;-73
2021/03/08 07:41:35;;;;;;;36.97;22.38;;;;;;;;;;5042492;28;20182;-73
2021/03/08 07:44:08;;;;;;;40.60;23.60;;;;;;;;;;5051548;28;20173;-73
2021/03/08 07:46:34;;;;;;;40.90;20.80;;;;;;;;;;5050486;28;20591;-73
2021/03/08 07:49:01;;;;;;;42.35;21.20;;;;;;;;;;5051740;28;20567;-73
2021/03/08 07:51:28;;;;;;;32.15;21.05;;;;;;;;;;5045981;28;20295;-73
2021/03/08 07:54:06;;;;;;;34.92;20.52;;;;;;;;;;5019873;28;20227;-73
2021/03/08 07:56:33;;;;;;;35.08;22.00;;;;;;;;;;5031593;28;20553;-73
2021/03/08 07:59:00;;;;;;;37.00;22.25;;;;;;;;;;5031227;28;20178;-74
2021/03/08 08:01:26;;;;;;;35.33;21.00;;;;;;;;;;5031044;28;20212;-73
2021/03/08 08:03:53;;;;;;;59.65;25.92;;;;;;;;;;5030191;28;20178;-73
2021/03/08 08:06:20;;;;;;;42.42;23.30;;;;;;;;;;5031513;28;20779;-73
2021/03/08 08:08:50;;;;;;;32.67;20.83;;;;;;;;;;5031357;28;20201;-72
2021/03/08 08:11:17;;;;;;;35.92;22.30;;;;;;;;;;5047884;28;20220;-73
2021/03/08 08:13:45;;;;;;;37.25;23.88;;;;;;;;;;5052857;28;20198;-73
2021/03/08 08:16:12;;;;;;;38.42;24.20;;;;;;;;;;5055265;28;20169;-73
2021/03/08 08:18:39;;;;;;;46.63;25.35;;;;;;;;;;5049884;28;20210;-73
2021/03/08 08:21:06;;;;;;;44.35;23.40;;;;;;;;;;5034869;28;20198;-73
2021/03/08 08:23:36;;;;;;;41.95;24.20;;;;;;;;;;5034728;28;20210;-73
2021/03/08 08:26:03;;;;;;;46.45;26.40;;;;;;;;;;5035562;28;20664;-73
2021/03/08 08:28:29;;;;;;;44.35;26.17;;;;;;;;;;5035681;28;20174;-73
2021/03/08 08:30:59;;;;;;;43.95;25.00;;;;;;;;;;5035084;28;20202;-73
2021/03/08 08:33:29;;;;;;;47.65;26.38;;;;;;;;;;5034239;28;20185;-72
2021/03/08 08:36:10;;;;;;;40.67;26.02;;;;;;;;;;5033580;28;20181;-72
2021/03/08 08:38:37;;;;;;;52.97;27.60;;;;;;;;;;5037483;28;20181;-73
2021/03/08 08:41:20;;;;;;;38.75;24.27;;;;;;;;;;5050230;28;20635;-73
2021/03/08 08:43:47;;;;;;;44.72;25.48;;;;;;;;;;5053985;28;20173;-73
2021/03/08 08:46:23;;;;;;;38.75;26.45;;;;;;;;;;5051832;28;20706;-73
2021/03/08 08:49:06;;;;;;;44.95;27.33;;;;;;;;;;5033094;28;20679;-73
2021/03/08 08:51:50;;;;;;;41.42;24.58;;;;;;;;;;5034075;28;20200;-72
2021/03/08 08:54:28;;;;;;;44.50;23.90;;;;;;;;;;5033999;28;20198;-73
2021/03/08 08:56:58;;;;;;;37.88;24.00;;;;;;;;;;5033608;28;20162;-73
2021/03/08 08:59:25;;;;;;;37.35;23.02;;;;;;;;;;5033197;28;20613;-73
2021/03/08 09:02:17;;;;;;;44.58;26.13;;;;;;;;;;5033972;28;20531;-73
2021/03/08 09:04:44;;;;;;;39.38;26.00;;;;;;;;;;5033906;28;20653;-73
2021/03/08 09:07:23;;;;;;;47.05;28.38;;;;;;;;;;5034160;28;20220;-73
2021/03/08 09:09:49;;;;;;;40.55;26.13;;;;;;;;;;5052416;28;20714;-73
2021/03/08 09:12:29;;;;;;;45.20;27.55;;;;;;;;;;5053748;28;20178;-73
2021/03/08 09:14:55;;;;;;;41.90;27.58;;;;;;;;;;5048451;28;20229;-73
2021/03/08 09:17:24;;;;;;;47.50;28.88;;;;;;;;;;5022326;28;20320;-73
2021/03/08 09:19:56;;;;;;;41.45;25.42;;;;;;;;;;5035671;28;20201;-73
2021/03/08 09:22:28;;;;;;;46.38;26.67;;;;;;;;;;5049444;28;20181;-73
2021/03/08 09:24:57;;;;;;;47.72;26.42;;;;;;;;;;5053467;28;20185;-73
2021/03/08 09:27:24;;;;;;;52.45;28.15;;;;;;;;;;5053758;28;20307;-73
2021/03/08 09:29:50;;;;;;;59.35;28.35;;;;;;;;;;5054064;28;20204;-73
2021/03/08 09:32:16;;;;;;;45.83;25.63;;;;;;;;;;5054097;28;20169;-73
2021/03/08 09:34:42;;;;;;;47.65;26.55;;;;;;;;;;5036920;28;20224;-73
2021/03/08 09:37:08;;;;;;;40.88;23.25;;;;;;;;;;5051547;28;20185;-73
2021/03/08 09:39:47;;;;;;;42.50;26.50;;;;;;;;;;5052852;28;20201;-73
2021/03/08 09:42:13;;;;;;;38.33;25.15;;;;;;;;;;5052737;28;20173;-73
2021/03/08 09:44:43;;;;;;;52.58;28.27;;;;;;;;;;5053239;28;20189;-72
2021/03/08 09:47:09;;;;;;;51.92;26.38;;;;;;;;;;5053229;28;20177;-72
2021/03/08 09:49:51;;;;;;;44.33;27.15;;;;;;;;;;5052971;28;20197;-72
2021/03/08 09:52:35;;;;;;;49.97;27.08;;;;;;;;;;5051211;28;20177;-73
2021/03/08 09:55:02;;;;;;;41.45;26.75;;;;;;;;;;5052627;28;20201;-72
2021/03/08 09:57:34;;;;;;;39.97;26.88;;;;;;;;;;5035047;28;20649;-73
2021/03/08 10:00:01;;;;;;;42.28;25.83;;;;;;;;;;5031916;28;20249;-73
2021/03/08 10:02:27;;;;;;;40.55;25.92;;;;;;;;;;5032587;28;20182;-73
2021/03/08 10:04:54;;;;;;;49.00;27.25;;;;;;;;;;5033747;28;20182;-73
2021/03/08 10:07:20;;;;;;;51.67;30.75;;;;;;;;;;5039168;28;20183;-73
2021/03/08 10:09:46;;;;;;;46.33;27.35;;;;;;;;;;5042548;28;20783;-73
2021/03/08 10:12:12;;;;;;;41.22;25.88;;;;;;;;;;5032590;28;20189;-74
2021/03/08 10:14:38;;;;;;;49.78;29.63;;;;;;;;;;5032935;28;20275;-73
2021/03/08 10:17:04;;;;;;;48.33;29.65;;;;;;;;;;5033146;28;20174;-73
2021/03/08 10:19:30;;;;;;;41.40;24.63;;;;;;;;;;5041916;28;20566;-74
2021/03/08 10:21:56;;;;;;;48.88;29.08;;;;;;;;;;5051984;28;20475;-73
2021/03/08 10:24:39;;;;;;;46.57;28.60;;;;;;;;;;5047743;28;20700;-73
2021/03/08 10:27:10;;;;;;;43.97;24.80;;;;;;;;;;5030397;28;20867;-73
2021/03/08 10:29:39;;;;;;;56.42;30.25;;;;;;;;;;5042323;28;20275;-74
2021/03/08 10:32:06;;;;;;;43.38;25.25;;;;;;;;;;5052966;28;20178;-74
2021/03/08 10:34:32;;;;;;;49.45;30.55;;;;;;;;;;5050600;28;20220;-74
2021/03/08 10:36:59;;;;;;;54.28;28.48;;;;;;;;;;5050154;28;20173;-73
2021/03/08 10:39:25;;;;;;;55.97;30.42;;;;;;;;;;5051498;28;20644;-73
2021/03/08 10:41:52;;;;;;;48.83;28.85;;;;;;;;;;5049791;28;20174;-74
2021/03/08 10:44:21;;;;;;;53.78;30.83;;;;;;;;;;5051779;28;20187;-74
2021/03/08 10:46:47;;;;;;;44.33;27.35;;;;;;;;;;5050436;28;20519;-74
2021/03/08 10:49:13;;;;;;;56.28;31.88;;;;;;;;;;5051961;28;20649;-73
2021/03/08 10:51:40;;;;;;;55.33;29.45;;;;;;;;;;5051853;28;20703;-73
2021/03/08 10:54:08;;;;;;;47.50;28.63;;;;;;;;;;5052164;28;20269;-73
2021/03/08 10:56:35;;;;;;;51.55;30.00;;;;;;;;;;5051637;28;20292;-74
2021/03/08 10:59:02;;;;;;;42.53;27.10;;;;;;;;;;5048780;28;20185;-73
2021/03/08 11:01:29;;;;;;;50.55;28.30;;;;;;;;;;5084164;22;20706;-71
2021/03/08 11:03:56;;;;;;;54.03;29.48;;;;;;;;;;5065533;28;20181;-72
2021/03/08 11:06:22;;;;;;;51.58;31.65;;;;;;;;;;5071568;28;20644;-72
2021/03/08 11:08:56;;;;;;;48.15;27.85;;;;;;;;;;5069917;28;20223;-71
2021/03/08 11:11:23;;;;;;;53.20;31.10;;;;;;;;;;5071446;28;20205;-71
2021/03/08 11:13:52;;;;;;;50.33;29.52;;;;;;;;;;5061261;28;20205;-71
2021/03/08 11:16:18;;;;;;;47.20;30.63;;;;;;;;;;5070868;28;20184;-71
2021/03/08 11:18:45;;;;;;;49.25;29.10;;;;;;;;;;5071594;28;20169;-71
2021/03/08 11:21:21;;;;;;;50.08;28.88;;;;;;;;;;5071530;28;20195;-71
2021/03/08 11:23:47;;;;;;;49.22;30.90;;;;;;;;;;5071286;28;20177;-71
2021/03/08 11:26:13;;;;;;;51.90;30.42;;;;;;;;;;5071319;28;20181;-71
2021/03/08 11:28:40;;;;;;;44.80;30.65;;;;;;;;;;5071490;28;20238;-71
2021/03/08 11:31:06;;;;;;;56.05;34.20;;;;;;;;;;5071106;28;20200;-71
2021/03/08 11:33:36;;;;;;;49.70;34.13;;;;;;;;;;5062003;28;20281;-72
2021/03/08 11:36:02;;;;;;;48.38;30.33;;;;;;;;;;5069609;28;20669;-72
2021/03/08 11:38:28;;;;;;;52.53;32.05;;;;;;;;;;5071343;28;20173;-71
2021/03/08 11:40:55;;;;;;;54.55;31.80;;;;;;;;;;5071125;28;20203;-71
2021/03/08 11:43:22;;;;;;;54.58;34.20;;;;;;;;;;5067105;28;20223;-71
2021/03/08 11:45:49;;;;;;;53.80;31.67;;;;;;;;;;5062480;28;20212;-71
2021/03/08 11:48:15;;;;;;;54.38;31.60;;;;;;;;;;5052247;28;20161;-72
2021/03/08 11:50:41;;;;;;;59.67;32.60;;;;;;;;;;5070903;28;20258;-71
2021/03/08 11:53:07;;;;;;;56.70;34.88;;;;;;;;;;5074792;28;20414;-71
2021/03/08 11:55:33;;;;;;;57.17;35.40;;;;;;;;;;5074763;28;20208;-71
2021/03/08 11:57:59;;;;;;;53.47;33.40;;;;;;;;;;5074964;28;20445;-71
2021/03/08 12:00:26;;;;;;;54.10;34.13;;;;;;;;;;5073061;28;20326;-72
2021/03/08 12:02:52;;;;;;;54.35;32.17;;;;;;;;;;5068071;28;20424;-71
2021/03/08 12:05:19;;;;;;;51.10;31.40;;;;;;;;;;5071989;28;20176;-71
2021/03/08 12:07:45;;;;;;;54.17;30.95;;;;;;;;;;5074659;28;20184;-72
2021/03/08 12:10:12;;;;;;;51.75;30.02;;;;;;;;;;5073184;28;20200;-72
2021/03/08 12:12:38;;;;;;;51.72;31.63;;;;;;;;;;5073616;28;20256;-71
2021/03/08 12:15:06;;;;;;;45.55;31.13;;;;;;;;;;5072892;28;20212;-71
2021/03/08 12:17:32;;;;;;;52.58;30.63;;;;;;;;;;5074614;28;20205;-71
2021/03/08 12:19:58;;;;;;;50.03;30.13;;;;;;;;;;5063077;28;20697;-71
2021/03/08 12:22:24;;;;;;;58.28;33.17;;;;;;;;;;5054162;28;20171;-71
2021/03/08 12:24:50;;;;;;;56.55;32.00;;;;;;;;;;5054386;28;20214;-70
2021/03/08 12:27:16;;;;;;;59.77;32.50;;;;;;;;;;5058110;28;20212;-72
2021/03/08 12:29:43;;;;;;;56.03;32.30;;;;;;;;;;5071737;28;20989;-71
2021/03/08 12:32:09;;;;;;;57.47;31.58;;;;;;;;;;5065881;28;20187;-71
2021/03/08 12:34:35;;;;;;;55.97;31.08;;;;;;;;;;5067689;28;20283;-71
2021/03/08 12:37:01;;;;;;;51.33;33.03;;;;;;;;;;5064778;28;20764;-71
2021/03/08 12:39:27;;;;;;;55.88;34.38;;;;;;;;;;5065410;28;20435;-71
2021/03/08 12:41:53;;;;;;;58.17;36.55;;;;;;;;;;5073863;28;20219;-71
2021/03/08 12:44:19;;;;;;;45.67;29.08;;;;;;;;;;5068051;28;20343;-72
2021/03/08 12:46:46;;;;;;;63.38;38.83;;;;;;;;;;5063032;28;20781;-72
2021/03/08 12:49:13;;;;;;;66.90;37.60;;;;;;;;;;5064406;28;20185;-71
2021/03/08 12:51:39;;;;;;;53.88;34.83;;;;;;;;;;5063619;28;20200;-72
2021/03/08 12:54:05;;;;;;;75.20;37.22;;;;;;;;;;5064583;28;20212;-71
2021/03/08 12:56:31;;;;;;;54.27;33.23;;;;;;;;;;5071162;28;20556;-71
2021/03/08 12:58:57;;;;;;;58.00;32.72;;;;;;;;;;5067036;28;20490;-72
2021/03/08 13:01:23;;;;;;;53.38;30.60;;;;;;;;;;5061382;28;20261;-71
2021/03/08 13:03:49;;;;;;;55.93;30.80;;;;;;;;;;5064378;28;20197;-71
2021/03/08 13:06:17;;;;;;;47.53;31.33;;;;;;;;;;5065269;28;20431;-71
2021/03/08 13:08:42;;;;;;;42.88;28.85;;;;;;;;;;5064012;28;20495;-69
2021/03/08 13:11:09;;;;;;;54.20;31.23;;;;;;;;;;5072928;28;20733;-70
2021/03/08 13:13:35;;;;;;;41.55;27.45;;;;;;;;;;5071576;28;20489;-69
2021/03/08 13:16:00;;;;;;;45.57;29.27;;;;;;;;;;5073387;28;20208;-70
2021/03/08 13:18:26;;;;;;;46.23;28.13;;;;;;;;;;5073523;28;20399;-69
2021/03/08 13:20:52;;;;;;;46.00;26.20;;;;;;;;;;5064626;28;21126;-69
2021/03/08 13:23:18;;;;;;;41.47;28.00;;;;;;;;;;5061314;28;20442;-68
2021/03/08 13:25:44;;;;;;;46.07;27.70;;;;;;;;;;5062402;28;20442;-69
2021/03/08 13:28:10;;;;;;;43.83;27.70;;;;;;;;;;5057205;28;20903;-69
2021/03/08 13:30:36;;;;;;;42.47;25.07;;;;;;;;;;5061407;28;20474;-68
2021/03/08 13:33:03;;;;;;;44.77;30.00;;;;;;;;;;5060937;28;20515;-69
2021/03/08 13:35:29;;;;;;;45.40;27.77;;;;;;;;;;5069256;28;20533;-69
2021/03/08 13:37:54;;;;;;;38.30;25.63;;;;;;;;;;5059520;28;20303;-69
2021/03/08 13:40:21;;;;;;;37.22;24.73;;;;;;;;;;5071239;28;20287;-69
2021/03/08 13:42:47;;;;;;;39.17;27.38;;;;;;;;;;5064568;28;20180;-69
2021/03/08 13:45:13;;;;;;;39.42;27.25;;;;;;;;;;5061215;28;20560;-70
2021/03/08 13:47:39;;;;;;;37.97;24.80;;;;;;;;;;5052930;28;20180;-70
2021/03/08 13:50:07;;;;;;;44.75;29.50;;;;;;;;;;5068139;28;20215;-70
2021/03/08 13:52:33;;;;;;;49.80;27.50;;;;;;;;;;5069605;28;20186;-70
2021/03/08 13:54:59;;;;;;;42.03;25.80;;;;;;;;;;5053943;28;20207;-70
2021/03/08 13:57:25;;;;;;;46.30;27.13;;;;;;;;;;5064372;28;20438;-69
2021/03/08 13:59:51;;;;;;;36.20;24.33;;;;;;;;;;5071666;28;20235;-68
2021/03/08 14:02:17;;;;;;;43.50;27.03;;;;;;;;;;5063618;28;20399;-69
2021/03/08 14:04:43;;;;;;;48.13;30.33;;;;;;;;;;5059519;28;20450;-68
2021/03/08 14:07:10;;;;;;;49.20;29.38;;;;;;;;;;5060968;28;20523;-69
2021/03/08 14:09:36;;;;;;;50.45;28.05;;;;;;;;;;5062859;28;20176;-68
2021/03/08 14:12:03;;;;;;;46.13;28.08;;;;;;;;;;5063792;28;20271;-70
2021/03/08 14:14:29;;;;;;;42.40;28.05;;;;;;;;;;5066518;28;20619;-69
2021/03/08 14:16:55;;;;;;;47.20;29.75;;;;;;;;;;5066582;28;20168;-69
2021/03/08 14:19:21;;;;;;;50.43;30.13;;;;;;;;;;5052754;28;20253;-69
2021/03/08 14:21:47;;;;;;;47.70;28.70;;;;;;;;;;5063417;28;20431;-70
2021/03/08 14:24:13;;;;;;;52.33;32.17;;;;;;;;;;5070649;28;20439;-69